Fort Walton Beach, FL (32548)

5:44 AM CST on March 04, 2015 (GMT -0600)
Crosswinds Landing | Change Station
CLOSE
Current Station
Personal Weather Station
Location: Fort Walton Beach, FL
Elevation: 69 ft
Nearby Weather Stations
Active Advisory: Dense Fog Advisory Active Notice: Public Information Statement

Elev 69 ft 30.46 °N, 86.64 °W | Updated 7 minutes ago

Fog
Fog
63.5 °F
Feels Like 63.5 °F
N
0.0
Wind Variable Wind from South

Today
High -- | Low -- °F
--% Chance of Precip.
Yesterday
High -- | Low -- °F
Precip. -- in
6:09 AM 5:47 PM
Waxing Gibbous, 99% visible
Pressure 30.04 in
Visibility 0.2 miles
Clouds
Dew Point 62 °F
Humidity 94%
Rainfall 0.00 in
Snow Depth Not available.
UV Not available.
Pollen 9.00 out of 12
Air Quality Not available.
Flu Activity Not available.
METAR KHRT 041058Z COR 16005KT 1/4SM FG VV001 17/15 A3003 RMK AO2A SLP171 T01720147 RVRNO $ COR 1122

More Conditions Fewer Conditions

Pressure 30.04 in
Visibility 0.2 miles
Clouds
Dew Point 62 °F
Humidity 94%
Rainfall 0.00 in
Snow Depth Not available.
UV Not available.
Pollen 9.00 out of 12
Air Quality Not available.
Flu Activity Not available.
METAR KHRT 041058Z COR 16005KT 1/4SM FG VV001 17/15 A3003 RMK AO2A SLP171 T01720147 RVRNO $ COR 1122

More Conditions Fewer Conditions

10-Day Weather Forecast

Almanac

Astronomy

Mar. 04, 2015 Rise Set
Actual Time
Civil Twilight
Nautical Twilight
Astronomical Twilight
Moon
Length of Visible Light
Length of Day
Tomorrow will be .
, % of the Moon is Illuminated

Today's Extremes

State Highs State Lows

Community

WunderPhotos

Upload Photos

1,802,435 photos uploaded!

WunderBlogs® & News

Nearby

Air Quality

  Air Quality AQ Index Pollutant
Not available.

Snow Depth

Station Depth Elevation

Earthquake Activity

City Distance Mag. Time & Date
Minimum magnitude displayed is 2.5.

Coastal Water Temperatures

Place Temperature

Nearby Weather Stations

Dense Fog Advisory
Statement as of 9:50 PM CST on March 03, 2015

... Dense fog advisory remains in effect until 9 am CST
Wednesday...

* visibility... will become reduced to one quarter mile or less in
some locations.

* Impacts... reduced visibility will result in hazardous travel
conditions tonight and early Wednesday morning.

Precautionary/preparedness actions...

A dense fog advisory means visibilities will frequently be
reduced to less than one quarter mile. If driving... slow down...
use your low beam headlights... and leave plenty of distance ahead
of you.